createdAt,value
2022-10-09T00:00:27.148Z,101070.37
2022-10-09T00:03:19.912Z,101069.73
2022-10-09T00:05:52.078Z,101070.18
2022-10-09T00:08:24.261Z,101063.67
2022-10-09T00:10:56.469Z,101062.55
2022-10-09T00:13:28.892Z,101059.81
2022-10-09T00:15:59.377Z,101057.61
2022-10-09T00:18:31.637Z,101059.75
2022-10-09T00:21:04.082Z,101057.82
2022-10-09T00:23:34.691Z,101054.59
2022-10-09T00:26:07.211Z,101053.73
2022-10-09T00:28:39.449Z,101049.00
2022-10-09T00:31:12.674Z,101046.80
2022-10-09T00:33:45.107Z,101047.40
2022-10-09T00:36:19.286Z,101043.99
2022-10-09T00:38:51.856Z,101050.94
2022-10-09T00:41:23.190Z,101045.13
2022-10-09T00:43:57.320Z,101048.42
2022-10-09T00:46:35.591Z,101049.56
2022-10-09T00:49:17.280Z,101050.67
2022-10-09T00:51:50.588Z,101052.11
2022-10-09T00:54:24.561Z,101051.63
2022-10-09T00:56:57.547Z,101049.47
2022-10-09T00:59:30.144Z,101046.03
2022-10-09T01:02:00.655Z,101043.63
2022-10-09T01:04:33.036Z,101042.75
2022-10-09T01:07:18.801Z,101044.19
2022-10-09T01:09:56.002Z,101040.77
2022-10-09T01:12:35.232Z,101046.78
2022-10-09T01:15:13.455Z,101043.88
2022-10-09T01:17:53.063Z,101044.91
2022-10-09T01:20:37.630Z,101046.74
2022-10-09T01:23:27.263Z,101047.81
2022-10-09T01:26:10.648Z,101050.30
2022-10-09T01:28:44.428Z,101056.05
2022-10-09T01:31:17.783Z,101055.93
2022-10-09T01:33:50.219Z,101052.81
2022-10-09T01:36:23.141Z,101052.31
2022-10-09T01:38:55.923Z,101056.81
2022-10-09T01:41:28.159Z,101054.36
2022-10-09T01:44:00.308Z,101052.30
2022-10-09T01:46:33.732Z,101056.68
2022-10-09T01:49:13.706Z,101053.95
2022-10-09T01:51:59.074Z,101053.08
2022-10-09T01:54:36.478Z,101047.67
2022-10-09T01:57:09.914Z,101046.21
2022-10-09T01:59:43.928Z,101045.57
2022-10-09T02:02:16.395Z,101046.46
2022-10-09T02:04:50.090Z,101044.30
2022-10-09T02:07:22.913Z,101042.55
2022-10-09T02:09:55.991Z,101042.67
2022-10-09T02:12:30.850Z,101042.67
2022-10-09T02:15:03.057Z,101041.99
2022-10-09T02:17:38.599Z,101043.30
2022-10-09T02:20:15.916Z,101045.26
2022-10-09T02:22:49.538Z,101045.40
2022-10-09T02:25:22.312Z,101044.62
2022-10-09T02:27:52.756Z,101042.99
2022-10-09T02:30:25.213Z,101046.52
2022-10-09T02:32:55.654Z,101044.03
2022-10-09T02:35:27.778Z,101048.46
2022-10-09T02:37:59.847Z,101050.42
2022-10-09T02:40:31.867Z,101051.48
2022-10-09T02:43:04.037Z,101053.44
2022-10-09T02:45:36.182Z,101052.47
2022-10-09T02:48:08.652Z,101058.00
2022-10-09T02:50:40.651Z,101055.27
2022-10-09T02:53:12.696Z,101057.23
2022-10-09T02:55:44.810Z,101059.14
2022-10-09T02:58:16.945Z,101060.48
2022-10-09T03:00:52.562Z,101060.23
2022-10-09T03:03:24.642Z,101056.20
2022-10-09T03:06:04.139Z,101057.31
2022-10-09T03:08:36.423Z,101059.79
2022-10-09T03:11:08.683Z,101057.50
2022-10-09T03:13:41.170Z,101063.20
2022-10-09T03:16:15.137Z,101061.04
2022-10-09T03:18:47.461Z,101061.46
2022-10-09T03:21:21.081Z,101062.84
2022-10-09T03:23:53.801Z,101064.19
2022-10-09T03:26:27.649Z,101065.59
2022-10-09T03:29:00.025Z,101066.33
2022-10-09T03:31:51.230Z,101065.95
2022-10-09T03:34:24.543Z,101064.39
2022-10-09T03:36:57.005Z,101058.31
2022-10-09T03:39:29.485Z,101057.27
2022-10-09T03:42:01.769Z,101059.44
2022-10-09T03:44:34.103Z,101060.38
2022-10-09T03:47:06.984Z,101060.19
2022-10-09T03:49:39.347Z,101060.98
2022-10-09T03:52:11.697Z,101061.71
2022-10-09T03:54:44.034Z,101059.73
2022-10-09T03:57:16.444Z,101059.41
2022-10-09T03:59:48.789Z,101060.03
2022-10-09T04:02:21.110Z,101061.73
2022-10-09T04:04:53.502Z,101061.61
2022-10-09T04:07:25.969Z,101062.70
2022-10-09T04:09:58.579Z,101060.84
2022-10-09T04:12:30.978Z,101059.39
2022-10-09T04:15:04.121Z,101061.45
2022-10-09T04:17:36.470Z,101055.11
2022-10-09T04:20:10.293Z,101059.95
2022-10-09T04:22:42.578Z,101063.00
2022-10-09T04:25:14.999Z,101062.80
2022-10-09T04:27:47.361Z,101068.01
2022-10-09T04:30:19.754Z,101069.95
2022-10-09T04:32:52.332Z,101072.52
2022-10-09T04:35:23.165Z,101070.65
2022-10-09T04:37:55.470Z,101069.51
2022-10-09T04:40:27.815Z,101070.06
2022-10-09T04:43:00.102Z,101071.10
2022-10-09T04:45:32.655Z,101073.41
2022-10-09T04:48:05.043Z,101078.43
2022-10-09T04:50:37.436Z,101083.95
2022-10-09T04:53:09.854Z,101093.06
2022-10-09T04:55:43.236Z,101094.36
2022-10-09T04:58:16.003Z,101093.95
2022-10-09T05:00:46.972Z,101093.13
2022-10-09T05:03:19.513Z,101090.00
2022-10-09T05:05:51.925Z,101096.31
2022-10-09T05:08:24.324Z,101099.70
2022-10-09T05:10:56.804Z,101102.44
2022-10-09T05:13:29.119Z,101104.73
2022-10-09T05:16:03.997Z,101107.25
2022-10-09T05:18:36.700Z,101108.98
2022-10-09T05:21:09.273Z,101115.04
2022-10-09T05:23:41.990Z,101117.98
2022-10-09T05:26:17.700Z,101120.80
2022-10-09T05:28:50.461Z,101121.19
2022-10-09T05:31:22.135Z,101119.56
2022-10-09T05:33:54.735Z,101123.38
2022-10-09T05:36:27.001Z,101123.09
2022-10-09T05:39:01.305Z,101128.08
2022-10-09T05:41:33.727Z,101130.75
2022-10-09T05:44:06.935Z,101134.09
2022-10-09T05:46:39.296Z,101130.63
2022-10-09T05:49:13.222Z,101134.04
2022-10-09T05:51:45.640Z,101137.96
2022-10-09T05:54:19.389Z,101139.67
2022-10-09T05:56:51.687Z,101140.85
2022-10-09T05:59:23.979Z,101141.92
2022-10-09T06:01:56.486Z,101147.15
2022-10-09T06:04:29.023Z,101150.48
2022-10-09T06:07:01.356Z,101152.17
2022-10-09T06:09:33.982Z,101159.45
2022-10-09T06:12:06.590Z,101159.98
2022-10-09T06:14:38.884Z,101161.85
2022-10-09T06:17:11.150Z,101160.67
2022-10-09T06:19:43.431Z,101162.94
2022-10-09T06:22:15.719Z,101163.77
2022-10-09T06:24:48.060Z,101168.48
2022-10-09T06:27:20.367Z,101168.70
2022-10-09T06:29:53.490Z,101170.93
2022-10-09T06:32:25.927Z,101170.81
2022-10-09T06:34:58.221Z,101172.01
2022-10-09T06:37:30.534Z,101175.02
2022-10-09T06:40:02.938Z,101174.98
2022-10-09T06:42:35.245Z,101172.63
2022-10-09T06:45:09.300Z,101172.27
2022-10-09T06:47:41.670Z,101173.46
2022-10-09T06:50:14.203Z,101174.47
2022-10-09T06:52:46.742Z,101171.95
2022-10-09T06:55:19.679Z,101169.11
2022-10-09T06:57:50.426Z,101169.25
2022-10-09T07:00:22.723Z,101166.88
2022-10-09T07:02:55.166Z,101167.73
2022-10-09T07:05:27.533Z,101167.94
2022-10-09T07:07:59.893Z,101166.20
2022-10-09T07:10:32.342Z,101168.36
2022-10-09T07:13:04.699Z,101169.59
2022-10-09T07:15:37.048Z,101170.74
2022-10-09T07:18:09.711Z,101173.41
2022-10-09T07:20:42.040Z,101176.94
2022-10-09T07:23:14.387Z,101178.11
2022-10-09T07:25:46.699Z,101179.33
2022-10-09T07:28:19.180Z,101177.95
2022-10-09T07:30:51.614Z,101175.87
2022-10-09T07:33:24.095Z,101175.33
2022-10-09T07:36:00.142Z,101171.91
2022-10-09T07:38:32.885Z,101169.23
2022-10-09T07:41:04.343Z,101171.78
2022-10-09T07:43:37.587Z,101177.66
2022-10-09T07:46:13.237Z,101181.28
2022-10-09T07:48:46.042Z,101183.13
2022-10-09T07:51:19.773Z,101180.83
2022-10-09T07:53:52.442Z,101181.61
2022-10-09T07:56:23.834Z,101183.05
2022-10-09T07:58:57.545Z,101180.85
2022-10-09T08:01:30.753Z,101185.97
2022-10-09T08:04:04.043Z,101184.90
2022-10-09T08:06:36.733Z,101184.00
2022-10-09T08:09:09.952Z,101181.00
2022-10-09T08:11:42.440Z,101187.73
2022-10-09T08:14:19.269Z,101186.27
2022-10-09T08:16:51.921Z,101189.58
2022-10-09T08:19:22.853Z,101189.89
2022-10-09T08:21:55.304Z,101189.52
2022-10-09T08:24:27.597Z,101186.99
2022-10-09T08:26:59.887Z,101188.52
2022-10-09T08:29:35.554Z,101187.45
2022-10-09T08:32:10.652Z,101189.48
2022-10-09T08:34:43.007Z,101189.57
2022-10-09T08:37:15.367Z,101188.09
2022-10-09T08:39:47.668Z,101185.21
2022-10-09T08:42:28.478Z,101176.62
2022-10-09T08:45:00.768Z,101177.56
2022-10-09T08:47:39.013Z,101178.33
2022-10-09T08:50:15.226Z,101174.90
2022-10-09T08:52:52.547Z,101169.66
2022-10-09T08:55:27.349Z,101168.08
2022-10-09T08:58:05.470Z,101167.60
2022-10-09T09:00:41.309Z,101170.87
2022-10-09T09:03:31.074Z,101168.92
2022-10-09T09:06:09.190Z,101168.98
2022-10-09T09:08:50.094Z,101168.98
2022-10-09T09:11:27.876Z,101165.21
2022-10-09T09:14:13.553Z,101169.77
2022-10-09T09:16:51.513Z,101168.21
2022-10-09T09:19:55.064Z,101165.54
2022-10-09T09:22:28.101Z,101167.29
2022-10-09T09:25:01.612Z,101162.59
2022-10-09T09:27:36.730Z,101158.16
2022-10-09T09:30:18.939Z,101162.59
2022-10-09T09:32:58.239Z,101160.16
2022-10-09T09:35:37.257Z,101161.02
2022-10-09T09:38:09.586Z,101160.55
2022-10-09T09:40:46.596Z,101164.05
2022-10-09T09:43:21.850Z,101165.41
2022-10-09T09:45:57.654Z,101163.02
2022-10-09T09:48:36.267Z,101160.46
2022-10-09T09:51:27.977Z,101157.84
2022-10-09T09:54:04.204Z,101157.27
2022-10-09T09:57:07.136Z,101153.67
2022-10-09T09:59:37.371Z,101150.52
2022-10-09T10:02:18.346Z,101147.88
2022-10-09T10:04:59.143Z,101150.67
2022-10-09T10:07:33.478Z,101148.27
2022-10-09T10:10:08.343Z,101153.27
2022-10-09T10:12:45.046Z,101151.02
2022-10-09T10:15:23.853Z,101152.77
2022-10-09T10:18:02.388Z,101150.08
2022-10-09T10:20:44.928Z,101145.36
2022-10-09T10:23:33.577Z,101146.73
2022-10-09T10:26:13.302Z,101147.75
2022-10-09T10:28:50.570Z,101144.91
2022-10-09T10:31:33.959Z,101145.71
2022-10-09T10:34:08.753Z,101137.64
2022-10-09T10:36:41.063Z,101139.88
2022-10-09T10:39:18.547Z,101138.39
2022-10-09T10:41:52.903Z,101138.06
2022-10-09T10:44:38.211Z,101139.90
2022-10-09T10:47:14.385Z,101132.81
2022-10-09T10:49:46.712Z,101128.10
2022-10-09T10:52:31.107Z,101127.96
2022-10-09T10:55:14.569Z,101121.89
2022-10-09T10:57:52.428Z,101122.52
2022-10-09T11:00:26.582Z,101120.13
2022-10-09T11:03:07.131Z,101114.89
2022-10-09T11:05:46.751Z,101114.64
2022-10-09T11:08:32.863Z,101113.21
2022-10-09T11:11:10.371Z,101108.19
2022-10-09T11:13:49.599Z,101106.59
2022-10-09T11:16:34.848Z,101100.30
2022-10-09T11:19:22.187Z,101099.18
2022-10-09T11:22:03.579Z,101103.81
2022-10-09T11:24:52.317Z,101102.56
2022-10-09T11:27:27.697Z,101103.11
2022-10-09T11:30:03.348Z,101107.20
2022-10-09T11:35:17.179Z,101100.40
2022-10-09T11:37:55.261Z,101102.80
2022-10-09T11:40:30.638Z,101100.73
2022-10-09T11:43:08.758Z,101095.92
2022-10-09T11:45:44.430Z,101095.10
2022-10-09T11:48:22.829Z,101094.89
2022-10-09T11:51:02.282Z,101095.90
2022-10-09T11:53:37.076Z,101101.55
2022-10-09T11:56:20.562Z,101102.59
2022-10-09T11:59:01.314Z,101099.70
2022-10-09T12:01:35.989Z,101098.23
2022-10-09T12:04:20.822Z,101096.51
2022-10-09T12:07:01.979Z,101093.87
2022-10-09T12:09:37.203Z,101092.65
2022-10-09T12:12:21.099Z,101094.08
2022-10-09T12:14:54.567Z,101094.68
2022-10-09T12:17:38.567Z,101091.04
2022-10-09T12:20:18.796Z,101090.69
2022-10-09T12:23:14.252Z,101089.05
2022-10-09T12:25:48.841Z,101092.46
2022-10-09T12:28:29.569Z,101094.10
2022-10-09T12:31:04.310Z,101095.04
2022-10-09T12:33:41.820Z,101089.66
2022-10-09T12:36:17.282Z,101087.20
2022-10-09T12:38:49.623Z,101084.39
2022-10-09T12:41:25.289Z,101087.98
2022-10-09T12:43:58.366Z,101082.45
2022-10-09T12:46:32.794Z,101086.31
2022-10-09T12:49:08.913Z,101086.98
2022-10-09T12:51:41.359Z,101087.80
2022-10-09T12:54:15.563Z,101090.76
2022-10-09T12:56:48.194Z,101095.28
2022-10-09T12:59:21.303Z,101093.50
2022-10-09T13:01:56.054Z,101094.16
2022-10-09T13:04:31.211Z,101093.70
2022-10-09T13:07:07.496Z,101091.52
2022-10-09T13:09:41.493Z,101092.34
2022-10-09T13:12:21.014Z,101097.38
2022-10-09T13:14:58.221Z,101091.45
2022-10-09T13:17:35.313Z,101087.83
2022-10-09T13:20:27.249Z,101086.73
2022-10-09T13:23:01.768Z,101088.73
2022-10-09T13:25:37.210Z,101087.89
2022-10-09T13:28:11.472Z,101083.35
2022-10-09T13:30:43.911Z,101087.24
2022-10-09T13:33:17.962Z,101084.40
2022-10-09T13:35:50.281Z,101083.08
2022-10-09T13:38:23.732Z,101083.28
2022-10-09T13:40:56.604Z,101085.26
2022-10-09T13:43:31.163Z,101089.52
2022-10-09T13:46:03.624Z,101089.95
2022-10-09T13:48:37.841Z,101095.42
2022-10-09T13:51:10.455Z,101093.98
2022-10-09T13:53:42.757Z,101091.10
2022-10-09T13:56:15.490Z,101096.65
2022-10-09T13:58:47.897Z,101095.00
2022-10-09T14:01:20.496Z,101090.27
2022-10-09T14:03:52.837Z,101091.47
2022-10-09T14:06:25.219Z,101090.04
2022-10-09T14:08:58.254Z,101093.48
2022-10-09T14:11:30.588Z,101098.27
2022-10-09T14:14:03.151Z,101095.71
2022-10-09T14:16:35.574Z,101100.73
2022-10-09T14:19:08.582Z,101098.75
2022-10-09T14:21:40.991Z,101102.19
2022-10-09T14:24:14.602Z,101102.48
2022-10-09T14:26:51.359Z,101105.73
2022-10-09T14:29:24.083Z,101111.40
2022-10-09T14:31:56.477Z,101113.20
2022-10-09T14:34:28.852Z,101120.45
2022-10-09T14:37:01.885Z,101119.80
2022-10-09T14:39:37.765Z,101118.41
2022-10-09T14:42:10.241Z,101118.00
2022-10-09T14:44:42.919Z,101118.44
2022-10-09T14:47:15.324Z,101118.02
2022-10-09T14:49:47.723Z,101123.69
2022-10-09T14:52:20.250Z,101122.85
2022-10-09T14:54:52.667Z,101123.23
2022-10-09T14:57:25.146Z,101126.78
2022-10-09T14:59:57.599Z,101129.43
2022-10-09T15:02:29.978Z,101129.65
2022-10-09T15:05:02.372Z,101130.91
2022-10-09T15:07:34.979Z,101132.10
2022-10-09T15:10:08.269Z,101134.77
2022-10-09T15:12:41.171Z,101140.38
2022-10-09T15:15:13.952Z,101142.58
2022-10-09T15:17:46.468Z,101144.29
2022-10-09T15:20:19.064Z,101154.67
2022-10-09T15:22:51.748Z,101155.90
2022-10-09T15:25:25.483Z,101157.08
2022-10-09T15:27:58.006Z,101156.05
2022-10-09T15:30:30.851Z,101160.23
2022-10-09T15:33:05.307Z,101154.27
2022-10-09T15:35:37.730Z,101161.46
2022-10-09T15:38:11.385Z,101164.92
2022-10-09T15:40:48.001Z,101166.02
2022-10-09T15:43:22.617Z,101166.73
2022-10-09T15:45:55.587Z,101169.89
2022-10-09T15:48:27.995Z,101172.05
2022-10-09T15:51:00.328Z,101173.87
2022-10-09T15:53:32.659Z,101172.25
2022-10-09T15:56:06.464Z,101177.08
2022-10-09T15:58:38.975Z,101183.55
2022-10-09T16:01:12.936Z,101187.69
2022-10-09T16:03:45.907Z,101195.72
2022-10-09T16:06:19.906Z,101193.77
2022-10-09T16:08:52.806Z,101194.77
2022-10-09T16:11:26.599Z,101197.58
2022-10-09T16:13:59.872Z,101205.30
2022-10-09T16:16:32.295Z,101210.18
2022-10-09T16:19:05.328Z,101209.77
2022-10-09T16:21:37.767Z,101208.73
2022-10-09T16:24:10.432Z,101210.65
2022-10-09T16:26:42.759Z,101213.39
2022-10-09T16:29:13.470Z,101220.40
2022-10-09T16:31:45.877Z,101220.60
2022-10-09T16:34:18.311Z,101227.36
2022-10-09T16:36:50.730Z,101228.30
2022-10-09T16:39:23.920Z,101231.90
2022-10-09T16:42:00.597Z,101237.85
2022-10-09T16:44:33.061Z,101241.56
2022-10-09T16:47:05.391Z,101244.54
2022-10-09T16:49:36.109Z,101243.95
2022-10-09T16:52:08.422Z,101248.60
2022-10-09T16:54:40.722Z,101254.85
2022-10-09T16:57:11.557Z,101262.41
2022-10-09T16:59:44.008Z,101266.52
2022-10-09T17:02:15.101Z,101272.23
2022-10-09T17:04:47.692Z,101276.04
2022-10-09T17:07:23.282Z,101283.46
2022-10-09T17:09:55.890Z,101286.39
2022-10-09T17:12:26.572Z,101285.39
2022-10-09T17:14:58.971Z,101287.20
2022-10-09T17:17:31.487Z,101291.92
2022-10-09T17:20:02.143Z,101293.16
2022-10-09T17:22:34.167Z,101298.55
2022-10-09T17:25:07.406Z,101301.38
2022-10-09T17:27:39.734Z,101305.77
2022-10-09T17:30:14.128Z,101306.38
2022-10-09T17:32:46.806Z,101305.71
2022-10-09T17:35:19.896Z,101308.95
2022-10-09T17:37:55.095Z,101307.88
2022-10-09T17:40:27.405Z,101310.00
2022-10-09T17:43:00.675Z,101308.02
2022-10-09T17:45:37.119Z,101312.64
2022-10-09T17:48:12.232Z,101316.38
2022-10-09T17:50:53.583Z,101316.66
2022-10-09T17:53:26.671Z,101320.33
2022-10-09T17:56:03.373Z,101322.48
2022-10-09T17:58:36.139Z,101321.48
2022-10-09T18:01:09.967Z,101320.96
2022-10-09T18:03:42.685Z,101323.71
2022-10-09T18:06:17.444Z,101322.20
2022-10-09T18:08:51.587Z,101326.27
2022-10-09T18:11:25.792Z,101333.54
2022-10-09T18:13:58.794Z,101338.13
2022-10-09T18:16:36.212Z,101339.33
2022-10-09T18:19:12.653Z,101335.59
2022-10-09T18:21:46.666Z,101340.96
2022-10-09T18:24:19.231Z,101337.13
2022-10-09T18:26:51.687Z,101339.61
2022-10-09T18:29:24.147Z,101345.21
2022-10-09T18:31:56.695Z,101350.95
2022-10-09T18:34:29.088Z,101352.66
2022-10-09T18:37:01.538Z,101352.71
2022-10-09T18:39:33.922Z,101354.80
2022-10-09T18:42:06.799Z,101357.90
2022-10-09T18:44:40.428Z,101364.27
2022-10-09T18:47:17.088Z,101370.95
2022-10-09T18:49:52.544Z,101378.11
2022-10-09T18:52:25.229Z,101380.17
2022-10-09T18:54:58.106Z,101386.20
2022-10-09T18:57:30.625Z,101395.80
2022-10-09T19:00:01.307Z,101405.48
2022-10-09T19:02:33.798Z,101408.81
2022-10-09T19:05:06.611Z,101410.19
2022-10-09T19:07:39.018Z,101408.95
2022-10-09T19:10:12.217Z,101408.95
2022-10-09T19:12:44.659Z,101411.98
2022-10-09T19:15:17.080Z,101413.10
2022-10-09T19:17:47.891Z,101417.84
2022-10-09T19:20:20.578Z,101419.60
2022-10-09T19:22:52.917Z,101416.80
2022-10-09T19:25:25.340Z,101419.00
2022-10-09T19:27:57.661Z,101418.96
2022-10-09T19:30:30.533Z,101428.39
2022-10-09T19:33:02.957Z,101434.48
2022-10-09T19:35:35.279Z,101441.14
2022-10-09T19:38:07.728Z,101443.59
2022-10-09T19:40:40.061Z,101446.95
2022-10-09T19:43:12.768Z,101451.91
2022-10-09T19:45:45.375Z,101458.62
2022-10-09T19:48:16.125Z,101458.23
2022-10-09T19:50:48.793Z,101463.83
2022-10-09T19:53:19.473Z,101460.16
2022-10-09T19:55:51.834Z,101462.02
2022-10-09T19:58:24.142Z,101463.59
2022-10-09T20:00:56.544Z,101463.45
2022-10-09T20:03:28.956Z,101466.33
2022-10-09T20:06:05.345Z,101467.77
2022-10-09T20:08:37.993Z,101469.31
2022-10-09T20:11:08.834Z,101471.44
2022-10-09T20:13:43.112Z,101476.26
2022-10-09T20:16:17.738Z,101478.93
2022-10-09T20:18:50.164Z,101482.67
2022-10-09T20:21:22.503Z,101482.79
2022-10-09T20:23:54.852Z,101487.04
2022-10-09T20:26:28.116Z,101490.39
2022-10-09T20:29:00.560Z,101495.66
2022-10-09T20:31:32.937Z,101492.84
2022-10-09T20:34:05.270Z,101495.20
2022-10-09T20:36:39.215Z,101490.16
2022-10-09T20:39:14.081Z,101487.97
2022-10-09T20:41:46.699Z,101490.82
2022-10-09T20:44:19.095Z,101494.98
2022-10-09T20:46:53.238Z,101501.01
2022-10-09T20:49:25.684Z,101498.23
2022-10-09T20:51:57.990Z,101496.79
2022-10-09T20:54:31.535Z,101502.15
2022-10-09T20:57:03.975Z,101508.20
2022-10-09T20:59:36.400Z,101510.92
2022-10-09T21:02:08.789Z,101512.34
2022-10-09T21:04:41.135Z,101509.05
2022-10-09T21:07:13.452Z,101511.09
2022-10-09T21:09:45.844Z,101511.13
2022-10-09T21:12:18.254Z,101510.49
2022-10-09T21:14:50.636Z,101519.39
2022-10-09T21:17:23.055Z,101518.02
2022-10-09T21:19:56.558Z,101523.85
2022-10-09T21:22:29.089Z,101522.31
2022-10-09T21:25:01.483Z,101526.27
2022-10-09T21:27:33.928Z,101525.36
2022-10-09T21:30:07.953Z,101527.67
2022-10-09T21:32:40.255Z,101522.65
2022-10-09T21:35:12.671Z,101526.20
2022-10-09T21:37:44.981Z,101528.98
2022-10-09T21:40:17.616Z,101532.71
2022-10-09T21:42:50.020Z,101534.43
2022-10-09T21:45:22.574Z,101539.54
2022-10-09T21:47:54.862Z,101539.95
2022-10-09T21:50:27.817Z,101538.85
2022-10-09T21:53:00.364Z,101543.77
2022-10-09T21:55:32.757Z,101540.61
2022-10-09T21:58:05.092Z,101542.48
2022-10-09T22:00:37.832Z,101544.33
2022-10-09T22:03:08.454Z,101543.40
2022-10-09T22:05:42.976Z,101545.63
2022-10-09T22:08:15.234Z,101545.47
2022-10-09T22:10:47.554Z,101548.40
2022-10-09T22:13:19.948Z,101549.31
2022-10-09T22:15:52.247Z,101547.34
2022-10-09T22:18:24.553Z,101550.09
2022-10-09T22:20:56.821Z,101554.16
2022-10-09T22:23:29.134Z,101559.30
2022-10-09T22:26:03.394Z,101565.59
2022-10-09T22:28:36.009Z,101566.60
2022-10-09T22:31:10.498Z,101572.13
2022-10-09T22:33:42.947Z,101574.16
2022-10-09T22:36:17.268Z,101578.90
2022-10-09T22:38:49.656Z,101582.02
2022-10-09T22:41:23.462Z,101581.48
2022-10-09T22:43:57.238Z,101581.34
2022-10-09T22:46:31.489Z,101582.09
2022-10-09T22:49:03.740Z,101587.85
2022-10-09T22:51:36.566Z,101590.34
2022-10-09T22:54:09.227Z,101591.63
2022-10-09T22:56:40.471Z,101589.66
2022-10-09T22:59:15.177Z,101595.86
2022-10-09T23:01:49.485Z,101601.29
2022-10-09T23:04:23.124Z,101605.23
2022-10-09T23:06:57.871Z,101611.80
2022-10-09T23:09:32.046Z,101611.56
2022-10-09T23:12:04.439Z,101610.02
2022-10-09T23:14:36.858Z,101613.09
2022-10-09T23:17:09.183Z,101611.65
2022-10-09T23:19:41.716Z,101612.20
2022-10-09T23:22:14.034Z,101612.34
2022-10-09T23:24:46.567Z,101622.33
2022-10-09T23:27:18.986Z,101626.00
2022-10-09T23:29:51.498Z,101630.17
2022-10-09T23:32:23.803Z,101630.81
2022-10-09T23:34:56.046Z,101632.12
2022-10-09T23:37:28.626Z,101634.60
2022-10-09T23:40:00.953Z,101633.52
2022-10-09T23:42:33.354Z,101633.92
2022-10-09T23:45:06.855Z,101639.62
2022-10-09T23:47:39.185Z,101638.18
2022-10-09T23:50:11.944Z,101640.02
2022-10-09T23:52:42.602Z,101641.92
2022-10-09T23:55:14.935Z,101643.23
2022-10-09T23:57:47.252Z,101642.36
